Fleming, Georgia
Current Conditions -  °F | °C
As of 12:28 PM on Thursday 30 Oct 2014 (Local Time) from KLHW Reporting Station
Broken Clouds Broken Clouds  
Wind Chill: 68°   Ceiling: 1500
Heat Index: 68°   Visibility: 10mi
Dew Point: 59°   Wind: 5mph
Humidity: 73%   Direction: 340°NNW
Pressure: 29.98"   Gusts: NA
Location:  31.88°N, 81.43°W
Report Text: KLHW 301628Z AUTO 34004KT 10SM BKN015 20/15 A2998 RMK AO2 BKN V OVC
Loading
Personal Weather Stations






























Interactive Weather Map
Tropical Storm Tracking
New forecast layout! Learn more

10-Day Weather Forecast

Advertisements
Track Severe Weather on mobile